Pacific Palisades, CA

2:02 AM PDT on May 27, 2015 (GMT -0700)
KCAPACIF37 | | Change Station
CLOSE
Current Station
Personal Weather Station
Location: Pacific Palisades, CA
Elevation: 312 ft
Nearby Weather Stations

Elev 312 ft 34.05 °N, 118.54 °W | Updated 19 seconds ago

Overcast
Overcast
57.9 °F
Feels Like 57.9 °F
N
0.0
Wind Variable Wind from SSW
Gusts 0.0 mph

Today
High -- | Low -- °F
--% Chance of Precip.
Yesterday
High -- | Low -- °F
Precip. -- in
5:45 AM 7:57 PM
Waxing Gibbous, 65% visible
Pressure 29.99 in
Visibility 10.0 miles
Clouds Overcast 1600 ft
Dew Point 54 °F
Humidity 87%
Rainfall 0.00 in
Snow Depth Not available.
UV 0 out of 12
Pollen 4.70 out of 12
Air Quality Not available.
Flu Activity Sporadic
METAR KSMO 270851Z AUTO 00000KT 10SM OVC016 15/12 A3000 RMK AO2 SLP156 T01500122 58003

More Conditions Fewer Conditions

Pressure 29.99 in
Visibility 10.0 miles
Clouds Overcast 1600 ft
Dew Point 54 °F
Humidity 87%
Rainfall 0.00 in
Snow Depth Not available.
UV 0 out of 12
Pollen 4.70 out of 12
Air Quality Not available.
Flu Activity Sporadic
METAR KSMO 270851Z AUTO 00000KT 10SM OVC016 15/12 A3000 RMK AO2 SLP156 T01500122 58003

More Conditions Fewer Conditions

10-Day Weather Forecast

Almanac

Astronomy

May. 27, 2015 Rise Set
Actual Time
Civil Twilight
Nautical Twilight
Astronomical Twilight
Moon
Length of Visible Light
Length of Day
Tomorrow will be .
, % of the Moon is Illuminated

Today's Extremes

State Highs State Lows

Community

WunderPhotos

Upload Photos

1,824,634 photos uploaded!

WunderBlogs® & News

Nearby

Air Quality

  Air Quality AQ Index Pollutant
Not available.

Snow Depth

Station Depth Elevation

Earthquake Activity

City Distance Mag. Time & Date
Minimum magnitude displayed is 2.5.

Coastal Water Temperatures

Place Temperature

Stations

Nearby Weather Stations

Station Location Temp. Windchill Dew Point Humidity Wind Precip. Elev Updated Type